Ashville, Alabama
Current Conditions -  °F | °C
As of 4:55 PM on Thursday 27 Nov 2014 (Local Time) from KGAD Reporting Station
Overcast Overcast  
Wind Chill: 39°   Ceiling: 4500
Heat Index: 43°   Visibility: 10mi
Dew Point: 25°   Wind: 6mph
Humidity: 49%   Direction: 310°NW
Pressure: 30.4"   Gusts: NA
Location:  33.84°N, 86.25°W
Report Text: KGAD 272255Z 31005KT 10SM OVC045 06/M04 A3040 RMK AO1
Loading
Personal Weather Stations






























Interactive Weather Map New forecast layout! Learn more

10-Day Weather Forecast

Advertisements
Track Severe Weather on mobile